Search for airport 
image banner adimage banner adimage banner ad
image banner ad

MHRI - El Rincon

Located in Tegucigalpa, Honduras

ICAO - , IATA -

Data provided by Airmate  

General information

Coordinates: N14°6'56" W87°10'14"
Elevation is feet MSL.
 
View others Airports in Francisco Morazan

Operational data

Special qualification required
Current time UTC:
Current local time:
Weather at : MHTG - Toncontin ( 8 km )
METAR: MHTG 060100Z 00000KT 8000 VCSH SCT028 BKN080 20/19 Q1018 A3006 RETS RERA NOSIG
TAF: TAF MHTG 052220Z 0600/0624 17006KT 5000 TSRA SCT028TCU SCT030CB BKN090 TX29/0621Z TN18/0612Z BECMG 0604/0606 VRB02KT 9999 NSW SCT026 SCT090 BECMG 0615/0617 08005KT SCT032TCU BECMG 0621/0623 6000 -TSRA SCT030CB SCT090
View NOTAMs / SUP AIP / TFR affecting this airport [VIEW]
Communications frequencies: [VIEW]

Runways:

Airport contact information

Address: Tegucigalpa Honduras

Satellite view of MHRI